sensor_id;sensor_type;location;lat;lon;timestamp;pressure;altitude;pressure_sealevel;temperature;humidity
5298;BME280;14738;42.668;23.250;2023-03-21T00:01:11;48370.44;;;-141.90;44.57
5298;BME280;14738;42.668;23.250;2023-03-21T00:03:37;48394.28;;;-141.90;44.90
5298;BME280;14738;42.668;23.250;2023-03-21T00:06:07;48364.50;;;-141.90;45.01
5298;BME280;14738;42.668;23.250;2023-03-21T00:08:33;48376.41;;;-141.90;45.04
5298;BME280;14738;42.668;23.250;2023-03-21T00:11:04;48360.53;;;-141.90;45.66
5298;BME280;14738;42.668;23.250;2023-03-21T00:13:31;48342.66;;;-141.90;45.99
5298;BME280;14738;42.668;23.250;2023-03-21T00:16:03;48372.44;;;-141.90;45.83
5298;BME280;14738;42.668;23.250;2023-03-21T00:18:29;48354.56;;;-141.90;45.30
5298;BME280;14738;42.668;23.250;2023-03-21T00:20:58;48362.50;;;-141.90;45.71
5298;BME280;14738;42.668;23.250;2023-03-21T00:23:25;48362.50;;;-141.90;45.71
5298;BME280;14738;42.668;23.250;2023-03-21T00:25:51;48384.34;;;-141.90;45.43
5298;BME280;14738;42.668;23.250;2023-03-21T00:28:16;48388.31;;;-141.90;45.55
5298;BME280;14738;42.668;23.250;2023-03-21T00:30:41;48372.44;;;-141.90;45.76
5298;BME280;14738;42.668;23.250;2023-03-21T00:33:07;48364.50;;;-141.90;46.02
5298;BME280;14738;42.668;23.250;2023-03-21T00:35:32;48358.53;;;-141.90;46.37
5298;BME280;14738;42.668;23.250;2023-03-21T00:37:58;48370.44;;;-141.90;46.44
5298;BME280;14738;42.668;23.250;2023-03-21T00:40:23;48366.47;;;-141.90;46.42
5298;BME280;14738;42.668;23.250;2023-03-21T00:42:49;48402.22;;;-141.90;45.78
5298;BME280;14738;42.668;23.250;2023-03-21T00:45:14;48398.25;;;-141.90;46.04
5298;BME280;14738;42.668;23.250;2023-03-21T00:47:40;48386.34;;;-141.90;45.53
5298;BME280;14738;42.668;23.250;2023-03-21T00:50:06;48370.44;;;-141.90;46.94
5298;BME280;14738;42.668;23.250;2023-03-21T00:52:32;48392.28;;;-141.90;47.37
5298;BME280;14738;42.668;23.250;2023-03-21T00:54:57;48390.31;;;-141.90;46.99
5298;BME280;14738;42.668;23.250;2023-03-21T00:57:23;48362.50;;;-141.90;46.72
5298;BME280;14738;42.668;23.250;2023-03-21T00:59:48;48370.44;;;-141.90;47.24
5298;BME280;14738;42.668;23.250;2023-03-21T01:02:13;48398.25;;;-141.90;47.54
5298;BME280;14738;42.668;23.250;2023-03-21T01:04:52;48370.44;;;-141.90;47.78
5298;BME280;14738;42.668;23.250;2023-03-21T01:07:18;48370.44;;;-141.90;48.18
5298;BME280;14738;42.668;23.250;2023-03-21T01:09:43;48402.22;;;-141.90;47.94
5298;BME280;14738;42.668;23.250;2023-03-21T01:12:08;48366.47;;;-141.90;48.05
5298;BME280;14738;42.668;23.250;2023-03-21T01:14:35;48386.34;;;-141.90;48.07
5298;BME280;14738;42.668;23.250;2023-03-21T01:17:00;48406.19;;;-141.90;47.91
5298;BME280;14738;42.668;23.250;2023-03-21T01:19:26;48382.34;;;-141.90;47.98
5298;BME280;14738;42.668;23.250;2023-03-21T01:21:52;48394.28;;;-141.90;47.88
5298;BME280;14738;42.668;23.250;2023-03-21T01:24:18;48388.31;;;-141.90;47.95
5298;BME280;14738;42.668;23.250;2023-03-21T01:26:43;48368.47;;;-141.90;47.37
5298;BME280;14738;42.668;23.250;2023-03-21T01:29:09;48366.47;;;-141.90;48.17
5298;BME280;14738;42.668;23.250;2023-03-21T01:31:34;48376.41;;;-141.90;48.15
5298;BME280;14738;42.668;23.250;2023-03-21T01:33:59;48400.22;;;-141.90;48.80
5298;BME280;14738;42.668;23.250;2023-03-21T01:36:25;48392.28;;;-141.90;48.37
5298;BME280;14738;42.668;23.250;2023-03-21T01:38:51;48386.34;;;-141.90;48.76
5298;BME280;14738;42.668;23.250;2023-03-21T01:43:51;48374.41;;;-141.90;49.49
5298;BME280;14738;42.668;23.250;2023-03-21T01:46:36;48386.34;;;-141.90;49.19
5298;BME280;14738;42.668;23.250;2023-03-21T01:51:35;48410.16;;;-141.90;49.19
5298;BME280;14738;42.668;23.250;2023-03-21T01:54:03;48406.19;;;-141.90;49.16
5298;BME280;14738;42.668;23.250;2023-03-21T01:56:34;48374.41;;;-141.90;49.26
5298;BME280;14738;42.668;23.250;2023-03-21T01:59:05;48378.38;;;-141.90;49.33
5298;BME280;14738;42.668;23.250;2023-03-21T02:01:33;48378.38;;;-141.90;49.29
5298;BME280;14738;42.668;23.250;2023-03-21T02:03:59;48394.28;;;-141.90;49.82
5298;BME280;14738;42.668;23.250;2023-03-21T02:06:39;48402.22;;;-141.90;49.90
5298;BME280;14738;42.668;23.250;2023-03-21T02:09:11;48402.22;;;-141.90;49.99
5298;BME280;14738;42.668;23.250;2023-03-21T02:11:38;48354.56;;;-141.90;50.20
5298;BME280;14738;42.668;23.250;2023-03-21T02:14:04;48352.59;;;-141.90;50.02
5298;BME280;14738;42.668;23.250;2023-03-21T02:24:54;48374.41;;;-141.90;50.85
5298;BME280;14738;42.668;23.250;2023-03-21T02:27:30;48386.34;;;-141.90;51.03
5298;BME280;14738;42.668;23.250;2023-03-21T02:33:16;48396.25;;;-141.90;50.77
5298;BME280;14738;42.668;23.250;2023-03-21T02:36:15;48380.38;;;-141.90;50.91
5298;BME280;14738;42.668;23.250;2023-03-21T02:41:48;48348.63;;;-141.90;51.10
5298;BME280;14738;42.668;23.250;2023-03-21T02:46:54;48384.34;;;-141.90;52.16
5298;BME280;14738;42.668;23.250;2023-03-21T02:49:29;48404.19;;;-141.90;51.55
5298;BME280;14738;42.668;23.250;2023-03-21T02:51:57;48396.25;;;-141.90;51.41
5298;BME280;14738;42.668;23.250;2023-03-21T02:54:25;48394.28;;;-141.90;51.48
5298;BME280;14738;42.668;23.250;2023-03-21T02:56:54;48410.16;;;-141.90;52.15
5298;BME280;14738;42.668;23.250;2023-03-21T02:59:22;48406.19;;;-141.90;52.27
5298;BME280;14738;42.668;23.250;2023-03-21T03:01:50;48390.31;;;-141.90;52.54
5298;BME280;14738;42.668;23.250;2023-03-21T03:04:25;48356.56;;;-141.90;52.45
5298;BME280;14738;42.668;23.250;2023-03-21T03:25:20;48426.03;;;-141.90;53.32
5298;BME280;14738;42.668;23.250;2023-03-21T03:27:50;48386.34;;;-141.90;53.17
5298;BME280;14738;42.668;23.250;2023-03-21T03:30:18;48426.03;;;-141.90;53.50
5298;BME280;14738;42.668;23.250;2023-03-21T03:32:47;48398.25;;;-141.90;53.77
5298;BME280;14738;42.668;23.250;2023-03-21T03:35:17;48430.00;;;-141.90;53.99
5298;BME280;14738;42.668;23.250;2023-03-21T03:37:47;48412.13;;;-141.90;54.71
5298;BME280;14738;42.668;23.250;2023-03-21T03:42:51;48392.28;;;-141.90;54.15
5298;BME280;14738;42.668;23.250;2023-03-21T03:45:19;48410.16;;;-141.90;54.45
5298;BME280;14738;42.668;23.250;2023-03-21T03:48:03;48406.19;;;-141.90;54.63
5298;BME280;14738;42.668;23.250;2023-03-21T03:53:02;48402.22;;;-141.90;54.11
5298;BME280;14738;42.668;23.250;2023-03-21T03:55:30;48410.16;;;-141.90;53.38
5298;BME280;14738;42.668;23.250;2023-03-21T03:57:59;48408.16;;;-141.90;53.12
5298;BME280;14738;42.668;23.250;2023-03-21T04:00:26;48412.13;;;-141.90;53.02
5298;BME280;14738;42.668;23.250;2023-03-21T04:02:52;48402.22;;;-141.90;53.22
5298;BME280;14738;42.668;23.250;2023-03-21T04:05:18;48404.19;;;-141.90;53.82
5298;BME280;14738;42.668;23.250;2023-03-21T04:07:48;48412.13;;;-141.90;53.98
5298;BME280;14738;42.668;23.250;2023-03-21T04:10:17;48410.16;;;-141.90;54.69
5298;BME280;14738;42.668;23.250;2023-03-21T04:12:43;48400.22;;;-141.90;54.78
5298;BME280;14738;42.668;23.250;2023-03-21T04:15:09;48418.09;;;-141.90;55.26
5298;BME280;14738;42.668;23.250;2023-03-21T04:17:34;48414.13;;;-141.90;55.32
5298;BME280;14738;42.668;23.250;2023-03-21T04:20:00;48410.16;;;-141.90;56.20
5298;BME280;14738;42.668;23.250;2023-03-21T04:22:26;48410.16;;;-141.90;55.87
5298;BME280;14738;42.668;23.250;2023-03-21T04:24:52;48406.19;;;-141.90;56.28
5298;BME280;14738;42.668;23.250;2023-03-21T04:27:17;48376.41;;;-141.90;56.31
5298;BME280;14738;42.668;23.250;2023-03-21T04:29:43;48398.25;;;-141.90;56.85
5298;BME280;14738;42.668;23.250;2023-03-21T04:32:08;48406.19;;;-141.90;57.41
5298;BME280;14738;42.668;23.250;2023-03-21T04:34:43;48414.13;;;-141.90;57.31
5298;BME280;14738;42.668;23.250;2023-03-21T04:37:15;48406.19;;;-141.90;56.78
5298;BME280;14738;42.668;23.250;2023-03-21T04:39:41;48433.97;;;-141.90;56.71
5298;BME280;14738;42.668;23.250;2023-03-21T04:42:07;48424.06;;;-141.90;56.37
5298;BME280;14738;42.668;23.250;2023-03-21T04:44:32;48394.28;;;-141.90;56.40
5298;BME280;14738;42.668;23.250;2023-03-21T04:46:57;48430.00;;;-141.90;56.31
5298;BME280;14738;42.668;23.250;2023-03-21T04:49:23;48414.13;;;-141.90;55.83
5298;BME280;14738;42.668;23.250;2023-03-21T04:51:48;48414.13;;;-141.90;55.35
5298;BME280;14738;42.668;23.250;2023-03-21T04:54:14;48408.16;;;-141.90;54.56
5298;BME280;14738;42.668;23.250;2023-03-21T04:56:39;48404.19;;;-141.90;54.01
5298;BME280;14738;42.668;23.250;2023-03-21T04:59:08;48410.16;;;-141.90;53.71
5298;BME280;14738;42.668;23.250;2023-03-21T05:01:34;48374.41;;;-141.90;53.24
5298;BME280;14738;42.668;23.250;2023-03-21T05:04:00;48398.25;;;-141.90;52.78
5298;BME280;14738;42.668;23.250;2023-03-21T05:06:26;48390.31;;;-141.90;52.71
5298;BME280;14738;42.668;23.250;2023-03-21T05:08:53;48376.41;;;-141.90;52.38
5298;BME280;14738;42.668;23.250;2023-03-21T05:11:21;48356.56;;;-141.90;52.45
5298;BME280;14738;42.668;23.250;2023-03-21T05:13:46;48422.06;;;-141.90;52.43
5298;BME280;14738;42.668;23.250;2023-03-21T05:16:12;48386.34;;;-141.90;52.25
5298;BME280;14738;42.668;23.250;2023-03-21T05:18:37;48380.38;;;-141.90;51.55
5298;BME280;14738;42.668;23.250;2023-03-21T05:21:04;48394.28;;;-141.90;52.21
5298;BME280;14738;42.668;23.250;2023-03-21T05:23:32;48386.34;;;-141.90;51.73
5298;BME280;14738;42.668;23.250;2023-03-21T05:26:06;48366.47;;;-141.90;51.61
5298;BME280;14738;42.668;23.250;2023-03-21T05:28:33;48374.41;;;-141.90;51.13
5298;BME280;14738;42.668;23.250;2023-03-21T05:31:04;48402.22;;;-141.90;51.11
5298;BME280;14738;42.668;23.250;2023-03-21T05:33:29;48382.34;;;-141.90;50.89
5298;BME280;14738;42.668;23.250;2023-03-21T05:35:55;48404.19;;;-141.90;50.51
5298;BME280;14738;42.668;23.250;2023-03-21T05:38:20;48378.38;;;-141.90;50.37
5298;BME280;14738;42.668;23.250;2023-03-21T05:40:47;48404.19;;;-141.90;49.66
5298;BME280;14738;42.668;23.250;2023-03-21T05:43:12;48380.38;;;-141.90;49.20
5298;BME280;14738;42.668;23.250;2023-03-21T05:45:38;48368.47;;;-141.90;49.14
5298;BME280;14738;42.668;23.250;2023-03-21T05:48:03;48378.38;;;-141.90;48.43
5298;BME280;14738;42.668;23.250;2023-03-21T05:50:29;48386.34;;;-141.90;47.77
5298;BME280;14738;42.668;23.250;2023-03-21T05:52:54;48356.56;;;-141.90;47.35
5298;BME280;14738;42.668;23.250;2023-03-21T05:55:19;48418.09;;;-141.90;46.73
5298;BME280;14738;42.668;23.250;2023-03-21T05:57:45;48410.16;;;-141.90;46.63
5298;BME280;14738;42.668;23.250;2023-03-21T06:00:11;48374.41;;;-141.90;45.92
5298;BME280;14738;42.668;23.250;2023-03-21T06:02:36;48372.44;;;-141.90;45.37
5298;BME280;14738;42.668;23.250;2023-03-21T06:05:02;48386.34;;;-141.90;45.31
5298;BME280;14738;42.668;23.250;2023-03-21T06:07:28;48380.38;;;-141.90;45.23
5298;BME280;14738;42.668;23.250;2023-03-21T06:09:53;48366.47;;;-141.90;44.39
5298;BME280;14738;42.668;23.250;2023-03-21T06:12:19;48362.50;;;-141.90;44.04
5298;BME280;14738;42.668;23.250;2023-03-21T06:14:44;48422.06;;;-141.90;43.28
5298;BME280;14738;42.668;23.250;2023-03-21T06:17:10;48358.53;;;-141.90;42.58
5298;BME280;14738;42.668;23.250;2023-03-21T06:19:35;48370.44;;;-141.90;42.21
5298;BME280;14738;42.668;23.250;2023-03-21T06:22:01;48374.41;;;-141.90;42.69
5298;BME280;14738;42.668;23.250;2023-03-21T06:24:26;48312.88;;;-141.90;42.90
5298;BME280;14738;42.668;23.250;2023-03-21T06:26:51;48378.38;;;-141.90;42.81
5298;BME280;14738;42.668;23.250;2023-03-21T06:29:17;48384.34;;;-141.90;42.59
5298;BME280;14738;42.668;23.250;2023-03-21T06:31:43;48350.59;;;-141.90;42.70
5298;BME280;14738;42.668;23.250;2023-03-21T06:34:08;48398.25;;;-141.90;42.23
5298;BME280;14738;42.668;23.250;2023-03-21T06:36:36;48342.66;;;-141.90;41.59
5298;BME280;14738;42.668;23.250;2023-03-21T06:39:03;48414.13;;;-141.90;41.83
5298;BME280;14738;42.668;23.250;2023-03-21T06:41:29;48384.34;;;-141.90;39.95
5298;BME280;14738;42.668;23.250;2023-03-21T06:43:54;48348.63;;;-141.90;39.28
5298;BME280;14738;42.668;23.250;2023-03-21T06:46:20;48348.63;;;-141.90;37.46
5298;BME280;14738;42.668;23.250;2023-03-21T06:48:45;48384.34;;;-141.90;37.78
5298;BME280;14738;42.668;23.250;2023-03-21T06:51:14;48398.25;;;-141.90;36.97
5298;BME280;14738;42.668;23.250;2023-03-21T06:53:40;48384.34;;;-141.90;36.53
5298;BME280;14738;42.668;23.250;2023-03-21T06:56:09;48378.38;;;-141.90;36.75
5298;BME280;14738;42.668;23.250;2023-03-21T06:58:35;48366.47;;;-141.90;35.54
5298;BME280;14738;42.668;23.250;2023-03-21T07:01:02;48348.63;;;-141.90;34.82
5298;BME280;14738;42.668;23.250;2023-03-21T07:03:28;48378.38;;;-141.90;34.44
5298;BME280;14738;42.668;23.250;2023-03-21T07:05:53;48372.44;;;-141.90;34.57
5298;BME280;14738;42.668;23.250;2023-03-21T07:08:19;48380.38;;;-141.90;34.18
5298;BME280;14738;42.668;23.250;2023-03-21T07:10:44;48396.25;;;-141.90;34.08
5298;BME280;14738;42.668;23.250;2023-03-21T07:13:11;48366.47;;;-141.90;33.38
5298;BME280;14738;42.668;23.250;2023-03-21T07:15:37;48433.97;;;-141.90;33.17
5298;BME280;14738;42.668;23.250;2023-03-21T07:18:08;48388.31;;;-141.90;33.41
5298;BME280;14738;42.668;23.250;2023-03-21T07:20:34;48336.69;;;-141.90;32.65
5298;BME280;14738;42.668;23.250;2023-03-21T07:23:02;48390.31;;;-141.90;32.02
5298;BME280;14738;42.668;23.250;2023-03-21T07:25:28;48390.31;;;-141.90;32.60
5298;BME280;14738;42.668;23.250;2023-03-21T07:27:53;48378.38;;;-141.90;32.42
5298;BME280;14738;42.668;23.250;2023-03-21T07:30:19;48366.47;;;-141.90;32.58
5298;BME280;14738;42.668;23.250;2023-03-21T07:32:44;48390.31;;;-141.90;32.67
5298;BME280;14738;42.668;23.250;2023-03-21T07:35:14;48370.44;;;-141.90;32.58
5298;BME280;14738;42.668;23.250;2023-03-21T07:37:40;48394.28;;;-141.90;32.88
5298;BME280;14738;42.668;23.250;2023-03-21T07:40:07;48390.31;;;-141.90;32.65
5298;BME280;14738;42.668;23.250;2023-03-21T07:42:37;48352.59;;;-141.90;31.77
5298;BME280;14738;42.668;23.250;2023-03-21T07:45:03;48374.41;;;-141.90;31.95
5298;BME280;14738;42.668;23.250;2023-03-21T07:47:30;48402.22;;;-141.90;31.91
5298;BME280;14738;42.668;23.250;2023-03-21T07:49:55;48368.47;;;-141.90;31.57
5298;BME280;14738;42.668;23.250;2023-03-21T07:52:21;48362.50;;;-141.90;30.95
5298;BME280;14738;42.668;23.250;2023-03-21T07:54:46;48382.34;;;-141.90;30.38
5298;BME280;14738;42.668;23.250;2023-03-21T07:57:12;48368.47;;;-141.90;30.99
5298;BME280;14738;42.668;23.250;2023-03-21T07:59:37;48378.38;;;-141.90;31.14
5298;BME280;14738;42.668;23.250;2023-03-21T08:02:03;48378.38;;;-141.90;31.31
5298;BME280;14738;42.668;23.250;2023-03-21T08:04:28;48376.41;;;-141.90;32.05
5298;BME280;14738;42.668;23.250;2023-03-21T08:06:54;48374.41;;;-141.90;31.76
5298;BME280;14738;42.668;23.250;2023-03-21T08:09:19;48370.44;;;-141.90;31.12
5298;BME280;14738;42.668;23.250;2023-03-21T08:11:45;48346.63;;;-141.90;30.62
5298;BME280;14738;42.668;23.250;2023-03-21T08:14:10;48386.34;;;-141.90;30.50
5298;BME280;14738;42.668;23.250;2023-03-21T08:16:36;48404.19;;;-141.90;29.87
5298;BME280;14738;42.668;23.250;2023-03-21T08:19:01;48418.09;;;-141.90;30.44
5298;BME280;14738;42.668;23.250;2023-03-21T08:21:27;48402.22;;;-141.90;30.13
5298;BME280;14738;42.668;23.250;2023-03-21T08:23:52;48402.22;;;-141.90;29.25
5298;BME280;14738;42.668;23.250;2023-03-21T08:26:18;48410.16;;;-141.90;30.02
5298;BME280;14738;42.668;23.250;2023-03-21T08:28:44;48422.06;;;-141.90;29.91
5298;BME280;14738;42.668;23.250;2023-03-21T08:31:11;48380.38;;;-141.90;30.10
5298;BME280;14738;42.668;23.250;2023-03-21T08:33:37;48370.44;;;-141.90;30.01
5298;BME280;14738;42.668;23.250;2023-03-21T08:36:04;48390.31;;;-141.90;30.47
5298;BME280;14738;42.668;23.250;2023-03-21T08:38:30;48392.28;;;-141.90;29.93
5298;BME280;14738;42.668;23.250;2023-03-21T08:41:00;48370.44;;;-141.90;30.01
5298;BME280;14738;42.668;23.250;2023-03-21T08:43:26;48392.28;;;-141.90;29.71
5298;BME280;14738;42.668;23.250;2023-03-21T08:45:52;48406.19;;;-141.90;28.71
5298;BME280;14738;42.668;23.250;2023-03-21T08:48:18;48366.47;;;-141.90;28.88
5298;BME280;14738;42.668;23.250;2023-03-21T08:50:44;48404.19;;;-141.90;29.07
5298;BME280;14738;42.668;23.250;2023-03-21T08:53:09;48410.16;;;-141.90;29.85
5298;BME280;14738;42.668;23.250;2023-03-21T08:55:35;48398.25;;;-141.90;29.72
5298;BME280;14738;42.668;23.250;2023-03-21T08:58:00;48414.13;;;-141.90;29.89
5298;BME280;14738;42.668;23.250;2023-03-21T09:00:27;48380.38;;;-141.90;29.33
5298;BME280;14738;42.668;23.250;2023-03-21T09:02:52;48366.47;;;-141.90;28.93
5298;BME280;14738;42.668;23.250;2023-03-21T09:05:19;48406.19;;;-141.90;29.51
5298;BME280;14738;42.668;23.250;2023-03-21T09:07:45;48394.28;;;-141.90;29.44
5298;BME280;14738;42.668;23.250;2023-03-21T09:10:17;48388.31;;;-141.90;29.84
5298;BME280;14738;42.668;23.250;2023-03-21T09:12:43;48384.34;;;-141.90;29.76
5298;BME280;14738;42.668;23.250;2023-03-21T09:15:09;48366.47;;;-141.90;30.43
5298;BME280;14738;42.668;23.250;2023-03-21T09:17:37;48350.59;;;-141.90;31.67
5298;BME280;14738;42.668;23.250;2023-03-21T09:20:10;48374.41;;;-141.90;31.77
5298;BME280;14738;42.668;23.250;2023-03-21T09:22:45;48394.28;;;-141.90;31.16
5298;BME280;14738;42.668;23.250;2023-03-21T09:25:12;48394.28;;;-141.90;30.88
5298;BME280;14738;42.668;23.250;2023-03-21T09:27:38;48414.13;;;-141.90;29.81
5298;BME280;14738;42.668;23.250;2023-03-21T09:30:05;48378.38;;;-141.90;30.52
5298;BME280;14738;42.668;23.250;2023-03-21T09:32:33;48388.31;;;-141.90;30.11
5298;BME280;14738;42.668;23.250;2023-03-21T09:34:59;48390.31;;;-141.90;30.11
5298;BME280;14738;42.668;23.250;2023-03-21T09:37:24;48390.31;;;-141.90;30.39
5298;BME280;14738;42.668;23.250;2023-03-21T09:39:50;48408.16;;;-141.90;29.78
5298;BME280;14738;42.668;23.250;2023-03-21T09:42:39;48410.16;;;-141.90;29.57
5298;BME280;14738;42.668;23.250;2023-03-21T09:45:18;48378.38;;;-141.90;29.90
5298;BME280;14738;42.668;23.250;2023-03-21T09:47:47;48396.25;;;-141.90;29.79
5298;BME280;14738;42.668;23.250;2023-03-21T09:50:30;48390.31;;;-141.90;28.89
5298;BME280;14738;42.668;23.250;2023-03-21T09:53:04;48404.19;;;-141.90;29.31
5298;BME280;14738;42.668;23.250;2023-03-21T09:55:34;48396.25;;;-141.90;29.35
5298;BME280;14738;42.668;23.250;2023-03-21T10:00:39;48398.25;;;-141.90;29.49
5298;BME280;14738;42.668;23.250;2023-03-21T10:03:22;48378.38;;;-141.90;29.25
5298;BME280;14738;42.668;23.250;2023-03-21T10:05:50;48410.16;;;-141.90;29.76
5298;BME280;14738;42.668;23.250;2023-03-21T10:08:32;48384.34;;;-141.90;29.43
5298;BME280;14738;42.668;23.250;2023-03-21T10:11:25;48424.06;;;-141.90;29.21
5298;BME280;14738;42.668;23.250;2023-03-21T10:16:41;48420.09;;;-141.90;28.39
5298;BME280;14738;42.668;23.250;2023-03-21T10:19:14;48422.06;;;-141.90;28.00
5298;BME280;14738;42.668;23.250;2023-03-21T10:21:41;48426.03;;;-141.90;27.62
5298;BME280;14738;42.668;23.250;2023-03-21T10:24:28;48451.84;;;-141.90;27.51
5298;BME280;14738;42.668;23.250;2023-03-21T10:26:56;48424.06;;;-141.90;28.10
5298;BME280;14738;42.668;23.250;2023-03-21T10:29:31;48390.31;;;-141.90;26.57
5298;BME280;14738;42.668;23.250;2023-03-21T10:32:01;48432.00;;;-141.90;26.87
5298;BME280;14738;42.668;23.250;2023-03-21T10:34:31;48414.13;;;-141.90;26.80
5298;BME280;14738;42.668;23.250;2023-03-21T10:36:58;48432.00;;;-141.90;26.65
5298;BME280;14738;42.668;23.250;2023-03-21T10:39:31;48378.38;;;-141.90;27.20
5298;BME280;14738;42.668;23.250;2023-03-21T10:41:58;48433.97;;;-141.90;26.38
5298;BME280;14738;42.668;23.250;2023-03-21T10:44:29;48422.06;;;-141.90;26.24
5298;BME280;14738;42.668;23.250;2023-03-21T10:46:57;48432.00;;;-141.90;25.43
5298;BME280;14738;42.668;23.250;2023-03-21T10:49:23;48422.06;;;-141.90;25.97
5298;BME280;14738;42.668;23.250;2023-03-21T10:51:55;48422.06;;;-141.90;25.55
5298;BME280;14738;42.668;23.250;2023-03-21T10:54:25;48430.00;;;-141.90;25.20
5298;BME280;14738;42.668;23.250;2023-03-21T10:57:17;48410.16;;;-141.90;26.14
5298;BME280;14738;42.668;23.250;2023-03-21T10:59:48;48435.97;;;-141.90;24.79
5298;BME280;14738;42.668;23.250;2023-03-21T11:02:23;48441.91;;;-141.90;24.62
5298;BME280;14738;42.668;23.250;2023-03-21T11:04:51;48441.91;;;-141.90;25.54
5298;BME280;14738;42.668;23.250;2023-03-21T11:07:18;48451.84;;;-141.90;25.20
5298;BME280;14738;42.668;23.250;2023-03-21T11:10:30;48430.00;;;-141.90;25.18
5298;BME280;14738;42.668;23.250;2023-03-21T11:13:01;48406.19;;;-141.90;25.22
5298;BME280;14738;42.668;23.250;2023-03-21T11:15:51;48394.28;;;-141.90;25.24
5298;BME280;14738;42.668;23.250;2023-03-21T11:18:25;48422.06;;;-141.90;25.55
5298;BME280;14738;42.668;23.250;2023-03-21T11:20:57;48430.00;;;-141.90;25.26
5298;BME280;14738;42.668;23.250;2023-03-21T11:23:28;48437.94;;;-141.90;25.11
5298;BME280;14738;42.668;23.250;2023-03-21T11:25:58;48414.13;;;-141.90;25.11
5298;BME280;14738;42.668;23.250;2023-03-21T11:28:28;48396.25;;;-141.90;25.95
5298;BME280;14738;42.668;23.250;2023-03-21T11:30:59;48420.09;;;-141.90;25.64
5298;BME280;14738;42.668;23.250;2023-03-21T11:33:49;48406.19;;;-141.90;25.66
5298;BME280;14738;42.668;23.250;2023-03-21T11:38:52;48402.22;;;-141.90;25.78
5298;BME280;14738;42.668;23.250;2023-03-21T11:41:32;48406.19;;;-141.90;25.74
5298;BME280;14738;42.668;23.250;2023-03-21T11:43:59;48420.09;;;-141.90;25.42
5298;BME280;14738;42.668;23.250;2023-03-21T11:46:29;48406.19;;;-141.90;25.33
5298;BME280;14738;42.668;23.250;2023-03-21T11:48:56;48400.22;;;-141.90;25.19
5298;BME280;14738;42.668;23.250;2023-03-21T11:56:44;48350.59;;;-141.90;25.20
5298;BME280;14738;42.668;23.250;2023-03-21T11:59:32;48400.22;;;-141.90;24.87
5298;BME280;14738;42.668;23.250;2023-03-21T12:04:40;48412.13;;;-141.90;25.58
5298;BME280;14738;42.668;23.250;2023-03-21T12:07:41;48430.00;;;-141.90;25.80
5298;BME280;14738;42.668;23.250;2023-03-21T12:19:00;48412.13;;;-141.90;24.44
5298;BME280;14738;42.668;23.250;2023-03-21T12:24:54;48414.13;;;-141.90;25.01
5298;BME280;14738;42.668;23.250;2023-03-21T12:38:58;48437.94;;;-141.90;24.45
5298;BME280;14738;42.668;23.250;2023-03-21T12:41:53;48437.94;;;-141.90;24.49
5298;BME280;14738;42.668;23.250;2023-03-21T12:44:26;48439.94;;;-141.90;24.21
5298;BME280;14738;42.668;23.250;2023-03-21T12:47:20;48430.00;;;-141.90;24.10
5298;BME280;14738;42.668;23.250;2023-03-21T12:49:55;48384.34;;;-141.90;24.10
5298;BME280;14738;42.668;23.250;2023-03-21T12:52:31;48428.03;;;-141.90;24.21
5298;BME280;14738;42.668;23.250;2023-03-21T12:55:08;48412.13;;;-141.90;23.64
5298;BME280;14738;42.668;23.250;2023-03-21T12:57:44;48416.09;;;-141.90;23.95
5298;BME280;14738;42.668;23.250;2023-03-21T13:00:34;48422.06;;;-141.90;24.23
5298;BME280;14738;42.668;23.250;2023-03-21T13:03:12;48445.88;;;-141.90;23.68
5298;BME280;14738;42.668;23.250;2023-03-21T13:05:47;48432.00;;;-141.90;24.83
5298;BME280;14738;42.668;23.250;2023-03-21T13:08:22;48406.19;;;-141.90;25.33
5298;BME280;14738;42.668;23.250;2023-03-21T13:10:50;48402.22;;;-141.90;24.79
5298;BME280;14738;42.668;23.250;2023-03-21T13:20:56;48404.19;;;-141.90;24.62
5298;BME280;14738;42.668;23.250;2023-03-21T13:23:32;48424.06;;;-141.90;24.73
5298;BME280;14738;42.668;23.250;2023-03-21T13:25:57;48416.09;;;-141.90;25.24
5298;BME280;14738;42.668;23.250;2023-03-21T13:28:28;48428.03;;;-141.90;25.25
5298;BME280;14738;42.668;23.250;2023-03-21T13:33:39;48398.25;;;-141.90;24.99
5298;BME280;14738;42.668;23.250;2023-03-21T13:36:12;48404.19;;;-141.90;25.23
5298;BME280;14738;42.668;23.250;2023-03-21T13:38:39;48426.03;;;-141.90;24.89
5298;BME280;14738;42.668;23.250;2023-03-21T13:41:30;48414.13;;;-141.90;25.39
5298;BME280;14738;42.668;23.250;2023-03-21T13:56:28;48406.19;;;-141.90;25.20
5298;BME280;14738;42.668;23.250;2023-03-21T13:59:02;48410.16;;;-141.90;25.95
5298;BME280;14738;42.668;23.250;2023-03-21T14:01:31;48406.19;;;-141.90;26.21
5298;BME280;14738;42.668;23.250;2023-03-21T14:04:00;48390.31;;;-141.90;26.44
5298;BME280;14738;42.668;23.250;2023-03-21T14:06:36;48420.09;;;-141.90;26.16
5298;BME280;14738;42.668;23.250;2023-03-21T14:09:03;48430.00;;;-141.90;26.30
5298;BME280;14738;42.668;23.250;2023-03-21T14:11:31;48384.34;;;-141.90;26.87
5298;BME280;14738;42.668;23.250;2023-03-21T14:13:59;48414.13;;;-141.90;26.76
5298;BME280;14738;42.668;23.250;2023-03-21T14:16:26;48398.25;;;-141.90;26.58
5298;BME280;14738;42.668;23.250;2023-03-21T14:19:04;48366.47;;;-141.90;26.94
5298;BME280;14738;42.668;23.250;2023-03-21T14:21:32;48400.22;;;-141.90;27.19
5298;BME280;14738;42.668;23.250;2023-03-21T14:24:12;48394.28;;;-141.90;27.35
5298;BME280;14738;42.668;23.250;2023-03-21T14:26:44;48406.19;;;-141.90;27.61
5298;BME280;14738;42.668;23.250;2023-03-21T14:29:22;48406.19;;;-141.90;27.72
5298;BME280;14738;42.668;23.250;2023-03-21T14:31:49;48394.28;;;-141.90;28.44
5298;BME280;14738;42.668;23.250;2023-03-21T14:34:15;48392.28;;;-141.90;28.18
5298;BME280;14738;42.668;23.250;2023-03-21T14:36:41;48378.38;;;-141.90;28.71
5298;BME280;14738;42.668;23.250;2023-03-21T14:39:22;48390.31;;;-141.90;28.50